Terminal Aerodrome Forecast
Issued by NWS

Home | Current Version | Previous Version | Text Only | Print | Product List | Glossary On
Versions: 1 2 3 4 5 6 7 8 9 10 11 12 13 14 15 16 17 18
000
FTUS46 KSEW 021700 RRA
TAFBFI
TAF
KBFI 021755Z 0218/0318 VRB04KT P6SM OVC020
     FM022000 20008KT P6SM VCSH BKN035
     FM022300 22010KT P6SM -SHRA OVC035
     FM030000 VRB03KT P6SM VCSH OVC030
     FM030600 17007KT P6SM BKN035
     FM031200 15004KT P6SM OVC025=

USA.gov is the U.S. government's official web portal to all federal, state and local government web resources and services.